createdAt,value
2018-12-13T00:01:09.768Z,3.50
2018-12-13T00:03:48.718Z,3.60
2018-12-13T00:06:38.621Z,3.60
2018-12-13T00:09:13.392Z,3.60
2018-12-13T00:11:50.612Z,3.60
2018-12-13T00:14:28.034Z,3.50
2018-12-13T00:17:03.716Z,3.50
2018-12-13T00:19:44.390Z,3.50
2018-12-13T00:22:19.029Z,3.60
2018-12-13T00:25:01.690Z,3.60
2018-12-13T00:27:38.841Z,3.50
2018-12-13T00:30:13.146Z,3.50
2018-12-13T00:45:43.966Z,3.50
2018-12-13T00:48:20.257Z,3.50
2018-12-13T00:51:00.693Z,3.40
2018-12-13T00:53:34.818Z,3.40
2018-12-13T00:56:10.806Z,3.40
2018-12-13T00:58:45.533Z,3.50
2018-12-13T01:01:20.865Z,3.50
2018-12-13T01:04:02.683Z,3.50
2018-12-13T01:06:45.957Z,3.40
2018-12-13T01:09:24.263Z,3.20
2018-12-13T01:12:03.406Z,3.10
2018-12-13T01:14:46.173Z,3.00
2018-12-13T01:17:23.769Z,2.80
2018-12-13T01:20:02.024Z,2.70
2018-12-13T01:22:39.878Z,2.60
2018-12-13T01:25:17.474Z,2.60
2018-12-13T01:27:56.678Z,2.50
2018-12-13T01:30:34.277Z,2.30
2018-12-13T01:33:22.074Z,2.10
2018-12-13T01:36:03.923Z,1.90
2018-12-13T01:38:39.777Z,1.80
2018-12-13T01:41:15.425Z,1.60
2018-12-13T01:43:54.589Z,1.40
2018-12-13T01:54:28.159Z,1.20
2018-12-13T01:57:06.531Z,1.10
2018-12-13T01:59:42.935Z,0.90
2018-12-13T02:02:18.960Z,0.80
2018-12-13T02:04:56.473Z,0.90
2018-12-13T02:07:36.297Z,0.90
2018-12-13T02:10:19.861Z,0.90
2018-12-13T02:12:56.218Z,0.80
2018-12-13T02:15:37.039Z,0.90
2018-12-13T02:18:15.182Z,1.00
2018-12-13T02:20:51.216Z,1.20
2018-12-13T02:23:32.936Z,1.10
2018-12-13T02:26:11.676Z,1.10
2018-12-13T02:28:48.099Z,1.00
2018-12-13T02:34:34.713Z,1.20
2018-12-13T02:37:16.258Z,1.20
2018-12-13T02:39:54.333Z,1.20
2018-12-13T02:45:33.064Z,1.20
2018-12-13T02:48:16.628Z,1.20
2018-12-13T02:53:54.486Z,1.00
2018-12-13T02:56:30.131Z,1.00
2018-12-13T02:59:10.247Z,1.10
2018-12-13T03:01:44.648Z,1.30
2018-12-13T03:04:24.964Z,1.30
2018-12-13T03:07:13.641Z,1.40
2018-12-13T03:09:47.183Z,1.30
2018-12-13T03:12:24.960Z,1.20
2018-12-13T03:15:02.061Z,1.20
2018-12-13T03:17:43.729Z,1.30
2018-12-13T03:20:21.696Z,1.30
2018-12-13T03:22:58.027Z,1.30
2018-12-13T03:25:36.384Z,1.20
2018-12-13T03:28:16.790Z,1.30
2018-12-13T03:31:06.004Z,1.40
2018-12-13T03:33:50.802Z,1.40
2018-12-13T03:36:38.427Z,1.40
2018-12-13T03:39:20.471Z,1.30
2018-12-13T03:41:58.099Z,1.20
2018-12-13T03:44:37.983Z,1.20
2018-12-13T03:47:16.223Z,1.10
2018-12-13T03:49:53.314Z,1.10
2018-12-13T03:52:34.825Z,1.20
2018-12-13T03:55:11.570Z,1.10
2018-12-13T03:57:46.939Z,1.00
2018-12-13T04:00:24.718Z,1.10
2018-12-13T04:03:01.759Z,1.00
2018-12-13T04:05:50.017Z,0.90
2018-12-13T04:08:27.645Z,0.80
2018-12-13T04:11:04.662Z,0.80
2018-12-13T04:13:43.681Z,0.70
2018-12-13T04:16:21.699Z,0.80
2018-12-13T04:18:57.544Z,0.70
2018-12-13T04:21:46.003Z,0.70
2018-12-13T04:24:37.533Z,0.70
2018-12-13T04:27:15.636Z,0.90
2018-12-13T04:29:52.579Z,0.90
2018-12-13T04:32:29.074Z,1.00
2018-12-13T04:35:06.219Z,1.00
2018-12-13T04:37:42.965Z,1.00
2018-12-13T04:40:20.483Z,1.00
2018-12-13T04:42:56.409Z,0.90
2018-12-13T04:45:34.345Z,0.80
2018-12-13T04:48:16.299Z,0.90
2018-12-13T04:51:04.977Z,1.00
2018-12-13T04:53:43.179Z,1.00
2018-12-13T04:56:26.540Z,0.90
2018-12-13T04:59:05.180Z,0.80
2018-12-13T05:01:43.135Z,0.80
2018-12-13T05:04:20.955Z,0.80
2018-12-13T05:07:08.859Z,0.70
2018-12-13T05:09:55.078Z,0.60
2018-12-13T05:12:32.806Z,0.80
2018-12-13T05:18:23.884Z,0.80
2018-12-13T05:27:25.334Z,0.20
2018-12-13T05:30:05.651Z,0.20
2018-12-13T05:32:43.411Z,0.20
2018-12-13T05:35:22.392Z,0.20
2018-12-13T05:37:59.422Z,0.30
2018-12-13T05:40:35.778Z,0.30
2018-12-13T05:43:13.911Z,0.40
2018-12-13T05:45:51.718Z,0.50
2018-12-13T05:48:30.245Z,0.50
2018-12-13T05:51:05.617Z,0.60
2018-12-13T05:53:40.711Z,0.60
2018-12-13T05:56:23.393Z,0.50
2018-12-13T05:59:01.980Z,0.50
2018-12-13T06:01:38.827Z,0.50
2018-12-13T06:04:22.939Z,0.50
2018-12-13T06:07:01.631Z,0.40
2018-12-13T06:12:44.509Z,0.10
2018-12-13T06:15:20.538Z,0.00
2018-12-13T06:17:56.903Z,0.00
2018-12-13T06:20:34.810Z,0.00
2018-12-13T06:23:11.495Z,-0.10
2018-12-13T06:25:45.680Z,-0.10
2018-12-13T06:28:24.219Z,-0.20
2018-12-13T06:34:01.654Z,0.00
2018-12-13T06:36:39.368Z,0.00
2018-12-13T06:39:15.713Z,-0.10
2018-12-13T06:41:56.104Z,-0.10
2018-12-13T06:44:33.749Z,-0.20
2018-12-13T06:47:08.170Z,-0.40
2018-12-13T06:49:42.426Z,-0.40
2018-12-13T06:52:17.121Z,-0.40
2018-12-13T06:54:51.902Z,-0.40
2018-12-13T06:57:29.095Z,-0.50
2018-12-13T07:00:06.592Z,-0.40
2018-12-13T07:02:44.632Z,-0.40
2018-12-13T07:05:22.076Z,-0.50
2018-12-13T07:08:07.862Z,-0.50
2018-12-13T07:10:43.725Z,-0.50
2018-12-13T07:13:23.422Z,-0.50
2018-12-13T07:15:58.848Z,-0.60
2018-12-13T07:18:45.678Z,-0.70
2018-12-13T07:21:20.750Z,-0.80
2018-12-13T07:24:05.981Z,-0.70
2018-12-13T07:26:43.860Z,-0.40
2018-12-13T07:29:22.631Z,-0.40
2018-12-13T07:32:03.791Z,-0.30
2018-12-13T07:34:46.808Z,-0.30
2018-12-13T07:37:24.388Z,-0.30
2018-12-13T07:40:06.361Z,-0.20
2018-12-13T07:42:49.995Z,-0.10
2018-12-13T07:45:32.698Z,-0.20
2018-12-13T07:48:10.006Z,-0.10
2018-12-13T07:51:02.564Z,0.10
2018-12-13T07:53:43.793Z,0.10
2018-12-13T07:56:29.294Z,0.00
2018-12-13T07:59:12.007Z,0.00
2018-12-13T08:01:54.047Z,0.00
2018-12-13T08:04:34.012Z,0.10
2018-12-13T08:10:17.864Z,0.10
2018-12-13T08:12:56.919Z,0.00
2018-12-13T08:15:31.984Z,0.00
2018-12-13T08:18:16.219Z,0.00
2018-12-13T08:20:58.216Z,0.00
2018-12-13T08:30:07.487Z,-0.10
2018-12-13T08:33:00.002Z,-0.10
2018-12-13T08:35:38.025Z,-0.10
2018-12-13T08:38:15.679Z,0.10
2018-12-13T08:50:28.145Z,0.20
2018-12-13T08:56:20.830Z,0.40
2018-12-13T09:05:17.916Z,0.50
2018-12-13T09:08:02.124Z,0.60
2018-12-13T09:13:48.948Z,0.80
2018-12-13T09:21:41.633Z,0.80
2018-12-13T09:30:37.880Z,0.70
2018-12-13T09:36:22.454Z,0.90
2018-12-13T09:39:09.623Z,1.00
2018-12-13T09:41:58.666Z,1.00
2018-12-13T09:54:12.754Z,1.30
2018-12-13T10:00:11.441Z,1.40
2018-12-13T10:05:56.461Z,1.50
2018-12-13T10:08:38.939Z,1.60
2018-12-13T10:11:17.581Z,1.60
2018-12-13T10:13:56.282Z,1.60
2018-12-13T10:16:37.730Z,1.60
2018-12-13T10:19:19.644Z,1.70
2018-12-13T10:21:55.244Z,1.80
2018-12-13T10:24:32.827Z,1.90
2018-12-13T10:30:18.760Z,2.10
2018-12-13T10:33:02.014Z,2.10
2018-12-13T10:35:44.251Z,2.20
2018-12-13T10:38:21.674Z,2.20
2018-12-13T10:50:34.949Z,2.60
2018-12-13T10:53:17.085Z,2.60
2018-12-13T10:55:53.638Z,2.70
2018-12-13T10:58:32.201Z,2.70
2018-12-13T11:04:19.356Z,2.80
2018-12-13T11:06:59.116Z,2.80
2018-12-13T11:12:41.137Z,3.00
2018-12-13T11:15:18.710Z,3.40
2018-12-13T11:17:56.256Z,3.50
2018-12-13T11:20:34.450Z,3.70
2018-12-13T11:23:12.647Z,4.30
2018-12-13T11:28:28.120Z,7.50
2018-12-13T11:31:03.512Z,8.70
2018-12-13T11:36:46.805Z,10.10
2018-12-13T11:39:28.512Z,10.50
2018-12-13T11:42:09.408Z,10.90
2018-12-13T11:44:46.146Z,9.80
2018-12-13T11:47:23.856Z,9.70
2018-12-13T11:52:58.908Z,10.10
2018-12-13T11:55:37.557Z,9.30
2018-12-13T11:58:15.196Z,9.00
2018-12-13T12:04:01.991Z,9.20
2018-12-13T12:09:48.822Z,9.10
2018-12-13T12:12:28.131Z,9.30
2018-12-13T12:15:05.534Z,9.70
2018-12-13T12:21:07.622Z,10.30
2018-12-13T12:23:55.040Z,10.50
2018-12-13T12:26:30.318Z,10.30
2018-12-13T12:29:05.437Z,9.70
2018-12-13T12:31:42.832Z,10.10
2018-12-13T12:37:19.891Z,10.20
2018-12-13T12:49:20.098Z,9.00
2018-12-13T12:51:58.060Z,9.60
2018-12-13T12:54:35.301Z,10.20
2018-12-13T12:57:19.184Z,10.60
2018-12-13T12:59:56.260Z,10.10
2018-12-13T13:05:42.099Z,9.70
2018-12-13T13:08:18.872Z,9.70
2018-12-13T13:11:06.727Z,9.90
2018-12-13T13:20:00.470Z,9.60
2018-12-13T13:26:01.362Z,9.50
2018-12-13T13:28:43.857Z,9.80
2018-12-13T13:51:50.974Z,11.00
2018-12-13T13:54:35.887Z,10.80
2018-12-13T13:57:11.302Z,9.90
2018-12-13T13:59:47.954Z,9.90
2018-12-13T14:02:24.176Z,9.90
2018-12-13T14:05:03.057Z,10.00
2018-12-13T14:07:37.510Z,10.20
2018-12-13T14:10:11.091Z,9.80
2018-12-13T14:12:48.134Z,9.90
2018-12-13T14:15:22.072Z,9.90
2018-12-13T14:17:58.233Z,9.40
2018-12-13T14:20:35.041Z,9.50
2018-12-13T14:23:08.751Z,9.10
2018-12-13T14:25:42.113Z,8.80
2018-12-13T14:28:21.420Z,8.50
2018-12-13T14:30:57.008Z,8.40
2018-12-13T14:33:32.970Z,8.20
2018-12-13T14:36:12.026Z,7.80
2018-12-13T14:38:46.262Z,7.40
2018-12-13T14:41:23.711Z,7.50
2018-12-13T14:44:23.191Z,7.30
2018-12-13T14:46:59.556Z,6.10
2018-12-13T14:49:35.135Z,5.00
2018-12-13T15:02:52.615Z,3.40
2018-12-13T15:05:27.152Z,3.20
2018-12-13T15:08:03.258Z,3.10
2018-12-13T15:10:38.084Z,3.00
2018-12-13T15:13:21.262Z,2.90
2018-12-13T15:15:56.477Z,2.90
2018-12-13T15:18:33.406Z,2.80
2018-12-13T15:21:12.251Z,2.60
2018-12-13T15:23:51.365Z,2.50
2018-12-13T15:26:26.594Z,2.40
2018-12-13T15:29:04.350Z,2.30
2018-12-13T15:31:43.503Z,2.20
2018-12-13T15:34:16.300Z,2.10
2018-12-13T15:36:49.590Z,2.10
2018-12-13T15:39:24.887Z,2.00
2018-12-13T15:41:57.843Z,1.90
2018-12-13T15:44:32.036Z,1.90
2018-12-13T15:47:07.368Z,1.70
2018-12-13T15:49:40.391Z,1.60
2018-12-13T15:52:15.709Z,1.60
2018-12-13T15:54:54.957Z,1.40
2018-12-13T15:57:30.092Z,1.40
2018-12-13T16:00:17.661Z,1.40
2018-12-13T16:02:52.887Z,1.40
2018-12-13T16:05:34.089Z,1.30
2018-12-13T16:08:06.876Z,1.10
2018-12-13T16:10:39.660Z,1.10
2018-12-13T16:13:17.198Z,1.20
2018-12-13T16:15:53.393Z,1.10
2018-12-13T16:21:38.384Z,1.20
2018-12-13T16:24:12.617Z,1.00
2018-12-13T16:26:45.687Z,0.80
2018-12-13T16:29:21.036Z,0.80
2018-12-13T16:31:56.462Z,0.90
2018-12-13T16:34:31.526Z,0.80
2018-12-13T16:37:07.086Z,0.40
2018-12-13T16:39:42.693Z,0.20
2018-12-13T16:42:17.890Z,0.00
2018-12-13T16:44:57.718Z,0.00
2018-12-13T16:47:43.810Z,0.20
2018-12-13T16:50:20.207Z,0.30
2018-12-13T16:52:56.906Z,0.30
2018-12-13T16:55:36.264Z,0.50
2018-12-13T16:58:10.260Z,0.50
2018-12-13T17:00:43.958Z,0.50
2018-12-13T17:03:27.942Z,0.50
2018-12-13T17:06:04.249Z,0.40
2018-12-13T17:08:38.934Z,0.40
2018-12-13T17:11:20.965Z,0.40
2018-12-13T17:13:58.149Z,0.50
2018-12-13T17:16:44.922Z,0.40
2018-12-13T17:19:19.807Z,0.30
2018-12-13T17:21:52.639Z,0.20
2018-12-13T17:24:25.245Z,0.10
2018-12-13T17:26:58.361Z,0.00
2018-12-13T17:29:33.867Z,-0.10
2018-12-13T17:32:06.638Z,-0.10
2018-12-13T17:34:44.321Z,0.00
2018-12-13T17:37:18.269Z,0.00
2018-12-13T17:39:58.438Z,0.00
2018-12-13T17:42:33.428Z,0.00
2018-12-13T17:45:11.109Z,-0.10
2018-12-13T17:47:44.380Z,0.10
2018-12-13T17:50:19.638Z,0.20
2018-12-13T17:52:58.749Z,0.20
2018-12-13T17:55:33.950Z,0.20
2018-12-13T17:58:07.541Z,0.20
2018-12-13T18:00:43.530Z,0.30
2018-12-13T18:03:20.107Z,0.30
2018-12-13T18:05:53.442Z,0.40
2018-12-13T18:08:28.889Z,0.50
2018-12-13T18:11:03.980Z,0.50
2018-12-13T18:13:45.197Z,0.60
2018-12-13T18:16:21.599Z,0.60
2018-12-13T18:18:54.865Z,0.60
2018-12-13T18:21:28.484Z,0.60
2018-12-13T18:24:01.752Z,0.60
2018-12-13T18:26:35.228Z,0.70
2018-12-13T18:29:08.015Z,0.70
2018-12-13T18:31:40.401Z,0.90
2018-12-13T18:34:14.702Z,1.00
2018-12-13T18:36:47.822Z,1.10
2018-12-13T18:39:21.035Z,1.20
2018-12-13T18:41:56.157Z,1.40
2018-12-13T18:44:31.518Z,1.50
2018-12-13T18:47:06.351Z,1.60
2018-12-13T18:49:39.177Z,1.70
2018-12-13T18:52:11.972Z,1.60
2018-12-13T18:54:46.104Z,1.70
2018-12-13T18:57:22.767Z,1.60
2018-12-13T18:59:59.876Z,1.70
2018-12-13T19:02:34.999Z,1.60
2018-12-13T19:05:08.855Z,1.60
2018-12-13T19:07:41.840Z,1.80
2018-12-13T19:10:16.088Z,1.80
2018-12-13T19:13:02.641Z,1.90
2018-12-13T19:15:36.020Z,1.90
2018-12-13T19:18:28.491Z,1.90
2018-12-13T19:21:04.552Z,2.00
2018-12-13T19:23:42.799Z,2.00
2018-12-13T19:26:16.985Z,2.00
2018-12-13T19:28:54.085Z,2.00
2018-12-13T19:31:26.724Z,1.80
2018-12-13T19:34:00.940Z,1.80
2018-12-13T19:39:51.902Z,1.90
2018-12-13T19:42:34.505Z,2.10
2018-12-13T19:45:20.033Z,2.10
2018-12-13T19:47:54.250Z,2.10
2018-12-13T19:50:41.679Z,2.10
2018-12-13T19:53:20.495Z,2.30
2018-12-13T19:56:03.120Z,2.20
2018-12-13T19:58:43.853Z,2.00
2018-12-13T20:01:19.721Z,1.90
2018-12-13T20:03:55.842Z,1.80
2018-12-13T20:06:32.290Z,1.70
2018-12-13T20:09:09.472Z,1.60
2018-12-13T20:11:49.199Z,1.60
2018-12-13T20:14:24.513Z,1.50
2018-12-13T20:37:27.266Z,1.60
2018-12-13T20:40:03.145Z,1.60
2018-12-13T20:42:39.286Z,1.50
2018-12-13T20:45:13.728Z,1.30
2018-12-13T20:47:51.224Z,1.10
2018-12-13T20:50:25.600Z,0.90
2018-12-13T20:53:00.253Z,0.80
2018-12-13T20:55:37.740Z,0.70
2018-12-13T20:58:13.797Z,0.50
2018-12-13T21:00:49.444Z,0.50
2018-12-13T21:03:26.661Z,0.30
2018-12-13T21:06:04.759Z,0.20
2018-12-13T21:08:39.961Z,0.20
2018-12-13T21:11:18.224Z,0.10
2018-12-13T21:13:54.033Z,-0.10
2018-12-13T21:16:31.252Z,-0.40
2018-12-13T21:19:07.513Z,-0.50
2018-12-13T21:21:47.212Z,-0.60
2018-12-13T21:24:24.662Z,-0.50
2018-12-13T21:27:04.478Z,-0.40
2018-12-13T21:29:44.026Z,-0.40
2018-12-13T21:32:21.845Z,-0.50
2018-12-13T21:34:58.135Z,-0.50
2018-12-13T21:37:33.400Z,-0.50
2018-12-13T21:45:13.638Z,0.00
2018-12-13T21:47:49.535Z,0.10
2018-12-13T21:50:23.216Z,0.20
2018-12-13T21:52:57.283Z,0.40
2018-12-13T21:55:32.319Z,0.60
2018-12-13T21:58:09.713Z,0.60
2018-12-13T22:00:45.407Z,0.60
2018-12-13T22:03:23.907Z,0.60
2018-12-13T22:06:02.550Z,0.60
2018-12-13T22:08:36.503Z,0.80
2018-12-13T22:11:19.987Z,0.90
2018-12-13T22:13:56.541Z,1.10
2018-12-13T22:16:31.557Z,1.10
2018-12-13T22:19:08.531Z,1.20
2018-12-13T22:21:44.681Z,1.10
2018-12-13T22:24:22.593Z,1.10
2018-12-13T22:26:57.370Z,1.20
2018-12-13T22:29:34.503Z,1.20
2018-12-13T22:32:09.911Z,1.20
2018-12-13T22:34:47.491Z,1.20
2018-12-13T22:37:25.074Z,1.20
2018-12-13T22:40:04.131Z,1.20
2018-12-13T22:42:39.266Z,1.00
2018-12-13T22:45:18.181Z,0.90
2018-12-13T22:47:54.098Z,0.80
2018-12-13T22:55:41.703Z,0.60
2018-12-13T22:58:18.769Z,0.70
2018-12-13T23:00:56.845Z,0.90
2018-12-13T23:03:35.362Z,1.00
2018-12-13T23:06:11.754Z,1.10
2018-12-13T23:08:54.477Z,1.10
2018-12-13T23:11:33.732Z,1.10
2018-12-13T23:14:12.787Z,1.00
2018-12-13T23:16:50.517Z,0.90
2018-12-13T23:19:28.338Z,0.90
2018-12-13T23:22:06.445Z,0.90
2018-12-13T23:24:44.434Z,0.90
2018-12-13T23:27:22.139Z,0.90
2018-12-13T23:29:57.979Z,0.90
2018-12-13T23:32:35.617Z,0.80
2018-12-13T23:35:13.772Z,0.80
2018-12-13T23:37:57.120Z,0.80
2018-12-13T23:40:36.640Z,0.90
2018-12-13T23:43:13.574Z,0.90
2018-12-13T23:45:49.371Z,0.90
2018-12-13T23:48:28.228Z,0.90
2018-12-13T23:51:04.007Z,0.90
2018-12-13T23:53:40.164Z,0.90
2018-12-13T23:56:15.818Z,0.90
2018-12-13T23:58:52.606Z,1.10
